Terminal Aerodrome Forecast
Issued by NWS

Current Version | Previous Version | Graphics & Text | Print | Product List | Glossary On
Versions: 1 2 3 4 5 6 7 8 9 10 11 12 13 14 15 16 17 18 19 20 21 22 23
000
FTUS41 KILN 251000 AAD
TAFLUK
TAF AMD
KLUK 251055Z 2511/2606 00000KT P6SM SKC
      TEMPO 2511/2512 2SM BR
     FM251200 VRB02KT P6SM FEW002
     FM251500 19004KT P6SM SCT040
     FM260100 00000KT P6SM FEW250=

USA.gov is the U.S. government's official web portal to all federal, state and local government web resources and services.